createdAt,value
2022-07-27T00:01:50.631Z,15.60
2022-07-27T00:04:19.899Z,15.50
2022-07-27T00:06:48.585Z,15.50
2022-07-27T00:09:15.920Z,15.50
2022-07-27T00:11:42.947Z,15.40
2022-07-27T00:14:09.893Z,15.40
2022-07-27T00:16:37.336Z,15.30
2022-07-27T00:19:05.001Z,15.30
2022-07-27T00:21:38.728Z,15.20
2022-07-27T00:24:13.075Z,15.20
2022-07-27T00:26:39.911Z,15.10
2022-07-27T00:29:06.816Z,15.10
2022-07-27T00:31:33.854Z,15.10
2022-07-27T00:34:00.764Z,15.00
2022-07-27T00:36:27.673Z,15.00
2022-07-27T00:38:54.600Z,14.90
2022-07-27T00:41:21.584Z,14.80
2022-07-27T00:44:00.180Z,14.80
2022-07-27T00:46:28.653Z,14.80
2022-07-27T00:48:55.768Z,14.80
2022-07-27T00:51:24.360Z,14.70
2022-07-27T00:53:55.612Z,14.70
2022-07-27T00:56:23.297Z,14.70
2022-07-27T00:58:53.523Z,14.70
2022-07-27T01:01:21.105Z,14.70
2022-07-27T01:03:48.440Z,14.70
2022-07-27T01:06:16.810Z,14.70
2022-07-27T01:09:14.643Z,14.70
2022-07-27T01:11:41.686Z,14.70
2022-07-27T01:14:09.339Z,14.60
2022-07-27T01:16:36.289Z,14.70
2022-07-27T01:19:03.453Z,14.70
2022-07-27T01:21:34.696Z,14.60
2022-07-27T01:24:01.867Z,14.60
2022-07-27T01:26:30.086Z,14.60
2022-07-27T01:28:58.719Z,14.60
2022-07-27T01:31:26.416Z,14.50
2022-07-27T01:33:53.421Z,14.50
2022-07-27T01:36:20.562Z,14.50
2022-07-27T01:38:47.727Z,14.50
2022-07-27T01:41:14.617Z,14.40
2022-07-27T01:43:41.638Z,14.40
2022-07-27T01:46:08.458Z,14.30
2022-07-27T01:48:35.489Z,14.30
2022-07-27T01:51:02.355Z,14.30
2022-07-27T01:53:29.156Z,14.30
2022-07-27T01:55:56.132Z,14.20
2022-07-27T01:58:23.022Z,14.20
2022-07-27T02:00:49.962Z,14.30
2022-07-27T02:03:16.868Z,14.30
2022-07-27T02:05:43.865Z,14.30
2022-07-27T02:08:10.795Z,14.20
2022-07-27T02:10:59.183Z,14.20
2022-07-27T02:13:26.336Z,14.00
2022-07-27T02:15:54.672Z,14.10
2022-07-27T02:18:33.242Z,14.10
2022-07-27T02:21:05.785Z,14.10
2022-07-27T02:23:34.142Z,14.10
2022-07-27T02:26:01.848Z,14.10
2022-07-27T02:28:28.722Z,14.10
2022-07-27T02:30:55.575Z,14.10
2022-07-27T02:33:22.413Z,14.10
2022-07-27T02:35:50.800Z,14.10
2022-07-27T02:38:17.745Z,14.10
2022-07-27T02:40:44.505Z,14.10
2022-07-27T02:43:11.397Z,14.00
2022-07-27T02:45:38.261Z,14.00
2022-07-27T02:48:05.286Z,14.00
2022-07-27T02:50:35.270Z,13.90
2022-07-27T02:53:02.119Z,13.90
2022-07-27T02:55:29.006Z,13.90
2022-07-27T02:57:55.775Z,13.70
2022-07-27T03:00:22.602Z,13.70
2022-07-27T03:02:49.969Z,13.70
2022-07-27T03:05:17.520Z,13.60
2022-07-27T03:07:44.337Z,13.60
2022-07-27T03:10:11.164Z,13.60
2022-07-27T03:12:37.929Z,13.60
2022-07-27T03:15:05.509Z,13.60
2022-07-27T03:17:32.987Z,13.60
2022-07-27T03:19:59.950Z,13.60
2022-07-27T03:22:30.612Z,13.50
2022-07-27T03:24:57.857Z,13.50
2022-07-27T03:27:24.700Z,13.50
2022-07-27T03:29:51.622Z,13.50
2022-07-27T03:32:18.505Z,13.60
2022-07-27T03:34:45.300Z,13.50
2022-07-27T03:37:12.281Z,13.50
2022-07-27T03:39:39.054Z,13.50
2022-07-27T03:42:06.248Z,13.60
2022-07-27T03:44:33.386Z,13.60
2022-07-27T03:47:00.227Z,13.60
2022-07-27T03:49:27.205Z,13.70
2022-07-27T03:51:54.128Z,13.60
2022-07-27T03:54:20.909Z,13.60
2022-07-27T03:56:47.991Z,13.60
2022-07-27T03:59:15.370Z,13.70
2022-07-27T04:01:42.589Z,13.70
2022-07-27T04:04:09.457Z,13.80
2022-07-27T04:06:36.278Z,13.80
2022-07-27T04:09:08.720Z,13.80
2022-07-27T04:11:43.773Z,13.90
2022-07-27T04:14:18.364Z,13.90
2022-07-27T04:16:45.238Z,13.90
2022-07-27T04:19:12.528Z,13.90
2022-07-27T04:21:39.685Z,13.90
2022-07-27T04:24:07.149Z,14.10
2022-07-27T04:26:34.020Z,14.10
2022-07-27T04:29:00.801Z,14.10
2022-07-27T04:31:27.664Z,14.10
2022-07-27T04:33:54.489Z,14.10
2022-07-27T04:36:21.422Z,14.20
2022-07-27T04:38:48.232Z,14.30
2022-07-27T04:41:15.097Z,14.30
2022-07-27T04:43:42.006Z,14.40
2022-07-27T04:46:14.757Z,14.40
2022-07-27T04:48:49.179Z,14.50
2022-07-27T04:51:17.889Z,14.60
2022-07-27T04:53:53.330Z,14.70
2022-07-27T04:56:26.378Z,14.80
2022-07-27T04:58:54.404Z,14.90
2022-07-27T05:01:22.958Z,14.90
2022-07-27T05:03:50.056Z,15.10
2022-07-27T05:06:17.315Z,15.10
2022-07-27T05:08:44.168Z,15.10
2022-07-27T05:11:10.986Z,15.20
2022-07-27T05:13:40.416Z,15.40
2022-07-27T05:16:12.141Z,15.50
2022-07-27T05:18:39.752Z,15.60
2022-07-27T05:21:08.201Z,15.70
2022-07-27T05:23:35.786Z,15.80
2022-07-27T05:26:03.345Z,16.00
2022-07-27T05:28:30.723Z,16.20
2022-07-27T05:30:57.609Z,16.40
2022-07-27T05:33:25.638Z,16.50
2022-07-27T05:35:52.607Z,16.60
2022-07-27T05:38:19.403Z,16.70
2022-07-27T05:40:50.948Z,16.90
2022-07-27T05:43:17.801Z,17.00
2022-07-27T05:45:44.779Z,17.60
2022-07-27T05:48:11.700Z,18.20
2022-07-27T05:50:38.538Z,18.40
2022-07-27T05:53:05.972Z,18.40
2022-07-27T05:55:33.465Z,19.30
2022-07-27T05:58:00.290Z,19.90
2022-07-27T06:00:27.286Z,20.30
2022-07-27T06:02:54.650Z,20.70
2022-07-27T06:05:21.462Z,20.70
2022-07-27T06:08:00.226Z,20.00
2022-07-27T06:10:32.240Z,20.60
2022-07-27T06:13:01.138Z,20.70
2022-07-27T06:15:28.052Z,21.30
2022-07-27T06:17:54.958Z,21.20
2022-07-27T06:20:24.204Z,21.30
2022-07-27T06:22:57.116Z,21.30
2022-07-27T06:25:34.337Z,21.30
2022-07-27T06:28:05.020Z,21.80
2022-07-27T06:30:32.983Z,21.80
2022-07-27T06:32:59.942Z,21.80
2022-07-27T06:35:27.497Z,21.90
2022-07-27T06:37:54.364Z,21.90
2022-07-27T06:40:21.442Z,22.00
2022-07-27T06:42:48.723Z,21.50
2022-07-27T06:45:16.452Z,21.70
2022-07-27T06:47:49.953Z,21.80
2022-07-27T06:50:20.213Z,21.50
2022-07-27T06:52:49.842Z,21.80
2022-07-27T06:55:16.813Z,22.10
2022-07-27T06:57:43.705Z,22.10
2022-07-27T07:00:11.788Z,21.80
2022-07-27T07:02:40.169Z,22.20
2022-07-27T07:05:07.276Z,22.60
2022-07-27T07:07:34.107Z,22.00
2022-07-27T07:10:01.132Z,22.00
2022-07-27T07:12:28.400Z,21.50
2022-07-27T07:14:55.209Z,21.20
2022-07-27T07:17:22.044Z,21.00
2022-07-27T07:19:48.800Z,21.50
2022-07-27T07:22:15.641Z,21.50
2022-07-27T07:24:42.492Z,22.30
2022-07-27T07:27:09.265Z,22.30
2022-07-27T07:29:36.081Z,22.30
2022-07-27T07:32:02.953Z,22.10
2022-07-27T07:34:29.873Z,22.10
2022-07-27T07:36:56.785Z,21.90
2022-07-27T07:39:27.837Z,21.80
2022-07-27T07:41:58.158Z,22.10
2022-07-27T07:44:25.208Z,22.60
2022-07-27T07:46:52.246Z,22.50
2022-07-27T07:49:19.453Z,21.50
2022-07-27T07:52:06.386Z,21.80
2022-07-27T07:54:33.625Z,22.00
2022-07-27T07:57:00.487Z,21.10
2022-07-27T07:59:27.601Z,20.60
2022-07-27T08:01:54.724Z,20.20
2022-07-27T08:04:22.043Z,21.00
2022-07-27T08:06:54.486Z,21.80
2022-07-27T08:09:26.866Z,22.00
2022-07-27T08:11:59.841Z,22.50
2022-07-27T08:14:41.595Z,23.00
2022-07-27T08:17:10.831Z,23.00
2022-07-27T08:19:40.552Z,23.00
2022-07-27T08:22:09.825Z,23.60
2022-07-27T08:24:57.411Z,23.60
2022-07-27T08:27:28.176Z,23.40
2022-07-27T08:29:55.192Z,22.40
2022-07-27T08:32:24.965Z,22.30
2022-07-27T08:35:08.548Z,22.00
2022-07-27T08:37:39.833Z,21.30
2022-07-27T08:40:39.751Z,20.90
2022-07-27T08:43:09.124Z,21.40
2022-07-27T08:45:37.809Z,21.60
2022-07-27T08:48:08.363Z,21.90
2022-07-27T08:50:41.652Z,22.00
2022-07-27T08:53:14.999Z,21.40
2022-07-27T08:55:47.692Z,21.30
2022-07-27T08:58:25.795Z,21.60
2022-07-27T09:00:53.541Z,21.80
2022-07-27T09:03:24.289Z,22.10
2022-07-27T09:05:57.897Z,22.30
2022-07-27T09:08:33.834Z,22.50
2022-07-27T09:11:03.458Z,22.50
2022-07-27T09:13:36.278Z,22.50
2022-07-27T09:16:20.358Z,21.70
2022-07-27T09:19:05.866Z,21.40
2022-07-27T09:21:39.297Z,21.00
2022-07-27T09:24:36.547Z,20.80
2022-07-27T09:27:10.412Z,20.80
2022-07-27T09:29:37.588Z,20.60
2022-07-27T09:32:18.862Z,20.60
2022-07-27T09:34:45.909Z,20.60
2022-07-27T09:37:32.746Z,20.90
2022-07-27T09:40:12.973Z,20.90
2022-07-27T09:43:06.596Z,21.00
2022-07-27T09:45:35.667Z,21.50
2022-07-27T09:48:21.448Z,20.80
2022-07-27T09:51:58.206Z,20.80
2022-07-27T09:54:10.776Z,20.90
2022-07-27T09:56:46.865Z,21.10
2022-07-27T09:59:24.459Z,21.70
2022-07-27T10:01:59.075Z,22.00
2022-07-27T10:04:28.848Z,22.10
2022-07-27T10:07:05.434Z,21.90
2022-07-27T10:09:38.349Z,21.40
2022-07-27T10:12:09.660Z,21.50
2022-07-27T10:14:36.868Z,21.80
2022-07-27T10:17:07.760Z,22.10
2022-07-27T10:19:53.117Z,21.80
2022-07-27T10:22:56.554Z,21.30
2022-07-27T10:25:26.536Z,21.20
2022-07-27T10:28:17.870Z,21.00
2022-07-27T10:30:53.804Z,20.90
2022-07-27T10:33:51.599Z,20.90
2022-07-27T10:36:54.312Z,21.40
2022-07-27T10:39:38.105Z,21.10
2022-07-27T10:42:29.269Z,21.00
2022-07-27T10:45:06.705Z,21.00
2022-07-27T10:47:39.440Z,20.90
2022-07-27T10:50:15.446Z,21.00
2022-07-27T10:52:50.074Z,21.00
2022-07-27T10:55:36.536Z,20.80
2022-07-27T10:58:06.226Z,20.90
2022-07-27T11:00:55.584Z,21.10
2022-07-27T11:03:41.532Z,21.20
2022-07-27T11:06:48.117Z,21.10
2022-07-27T11:10:02.580Z,21.10
2022-07-27T11:12:14.010Z,20.90
2022-07-27T11:14:56.303Z,20.90
2022-07-27T11:20:31.611Z,21.50
2022-07-27T11:23:50.895Z,22.00
2022-07-27T11:26:04.467Z,21.90
2022-07-27T11:28:39.281Z,22.20
2022-07-27T11:31:17.212Z,22.50
2022-07-27T11:34:01.108Z,22.50
2022-07-27T11:36:53.810Z,22.30
2022-07-27T11:39:59.074Z,22.30
2022-07-27T11:42:21.189Z,21.90
2022-07-27T11:44:49.855Z,21.80
2022-07-27T11:47:37.934Z,21.40
2022-07-27T11:50:12.786Z,21.30
2022-07-27T11:52:42.968Z,21.30
2022-07-27T11:55:15.541Z,21.30
2022-07-27T11:57:48.899Z,21.30
2022-07-27T12:00:16.363Z,21.30
2022-07-27T12:02:52.844Z,21.30
2022-07-27T12:05:25.559Z,21.20
2022-07-27T12:07:55.765Z,21.30
2022-07-27T12:10:34.496Z,21.20
2022-07-27T12:13:04.455Z,21.20
2022-07-27T12:15:49.456Z,21.20
2022-07-27T12:18:19.485Z,21.10
2022-07-27T12:20:48.843Z,21.10
2022-07-27T12:23:30.590Z,21.40
2022-07-27T12:26:24.305Z,21.50
2022-07-27T12:29:14.823Z,21.30
2022-07-27T12:31:49.494Z,21.40
2022-07-27T12:34:22.564Z,21.40
2022-07-27T12:36:51.915Z,21.40
2022-07-27T12:39:31.923Z,21.50
2022-07-27T12:42:11.092Z,21.50
2022-07-27T12:44:45.047Z,21.40
2022-07-27T12:47:31.644Z,21.20
2022-07-27T12:50:21.140Z,21.20
2022-07-27T12:52:54.372Z,21.40
2022-07-27T12:55:30.635Z,21.40
2022-07-27T12:58:00.612Z,21.30
2022-07-27T13:00:34.034Z,21.50
2022-07-27T13:03:06.294Z,21.50
2022-07-27T13:05:36.582Z,21.50
2022-07-27T13:08:04.825Z,21.40
2022-07-27T13:10:33.117Z,21.40
2022-07-27T13:13:17.437Z,21.30
2022-07-27T13:15:50.048Z,21.50
2022-07-27T13:18:23.516Z,21.70
2022-07-27T13:20:58.030Z,21.50
2022-07-27T13:23:26.555Z,21.50
2022-07-27T13:25:56.684Z,21.40
2022-07-27T13:28:29.899Z,21.40
2022-07-27T13:30:59.102Z,21.40
2022-07-27T13:33:26.213Z,21.70
2022-07-27T13:36:00.871Z,21.50
2022-07-27T13:38:28.755Z,21.60
2022-07-27T13:40:58.396Z,21.80
2022-07-27T13:43:31.397Z,21.60
2022-07-27T13:45:58.744Z,22.00
2022-07-27T13:48:29.114Z,22.30
2022-07-27T13:50:56.435Z,22.10
2022-07-27T13:53:32.415Z,22.10
2022-07-27T13:56:03.159Z,22.00
2022-07-27T13:58:30.617Z,21.20
2022-07-27T14:01:05.423Z,21.00
2022-07-27T14:03:39.422Z,21.20
2022-07-27T14:06:11.692Z,21.30
2022-07-27T14:08:42.634Z,21.30
2022-07-27T14:11:12.753Z,21.80
2022-07-27T14:13:43.832Z,21.70
2022-07-27T14:16:11.311Z,21.90
2022-07-27T14:18:43.826Z,22.00
2022-07-27T14:21:11.189Z,21.60
2022-07-27T14:23:38.793Z,21.50
2022-07-27T14:26:10.430Z,21.80
2022-07-27T14:28:39.424Z,21.40
2022-07-27T14:31:11.870Z,21.40
2022-07-27T14:33:40.071Z,21.40
2022-07-27T14:36:10.979Z,21.20
2022-07-27T14:38:40.688Z,21.20
2022-07-27T14:41:10.707Z,21.00
2022-07-27T14:43:38.305Z,21.10
2022-07-27T14:46:09.233Z,20.90
2022-07-27T14:49:04.498Z,21.10
2022-07-27T14:51:44.289Z,21.10
2022-07-27T14:54:20.029Z,21.10
2022-07-27T14:56:49.727Z,21.00
2022-07-27T14:59:26.686Z,20.90
2022-07-27T15:02:02.871Z,20.90
2022-07-27T15:04:32.913Z,20.80
2022-07-27T15:07:05.591Z,20.70
2022-07-27T15:09:39.513Z,20.60
2022-07-27T15:12:15.036Z,20.50
2022-07-27T15:14:55.815Z,20.40
2022-07-27T15:17:29.929Z,20.40
2022-07-27T15:19:57.230Z,20.40
2022-07-27T15:22:27.071Z,20.40
2022-07-27T15:24:54.275Z,20.40
2022-07-27T15:27:26.898Z,20.30
2022-07-27T15:29:54.043Z,20.30
2022-07-27T15:32:21.223Z,20.20
2022-07-27T15:34:51.009Z,20.30
2022-07-27T15:37:25.220Z,20.30
2022-07-27T15:39:55.065Z,20.40
2022-07-27T15:42:24.741Z,20.20
2022-07-27T15:44:56.360Z,20.30
2022-07-27T15:47:28.536Z,20.30
2022-07-27T15:50:06.360Z,20.30
2022-07-27T15:52:34.049Z,20.30
2022-07-27T15:55:07.128Z,20.30
2022-07-27T15:57:34.767Z,20.30
2022-07-27T16:00:03.940Z,20.10
2022-07-27T16:02:34.126Z,20.20
2022-07-27T16:05:11.270Z,20.20
2022-07-27T16:07:47.355Z,20.20
2022-07-27T16:10:20.355Z,20.20
2022-07-27T16:12:51.789Z,20.20
2022-07-27T16:15:44.910Z,20.10
2022-07-27T16:18:15.174Z,20.10
2022-07-27T16:20:47.141Z,20.10
2022-07-27T16:23:23.402Z,20.30
2022-07-27T16:26:10.034Z,20.20
2022-07-27T16:28:46.936Z,19.90
2022-07-27T16:31:19.893Z,19.90
2022-07-27T16:33:55.831Z,20.20
2022-07-27T16:36:26.198Z,20.30
2022-07-27T16:38:53.406Z,20.30
2022-07-27T16:41:22.571Z,20.10
2022-07-27T16:43:50.067Z,20.20
2022-07-27T16:46:17.786Z,20.50
2022-07-27T16:48:49.513Z,20.40
2022-07-27T16:51:18.719Z,20.30
2022-07-27T16:53:50.160Z,20.20
2022-07-27T16:56:17.964Z,20.20
2022-07-27T16:58:45.043Z,20.20
2022-07-27T17:01:22.215Z,20.30
2022-07-27T17:03:55.172Z,20.30
2022-07-27T17:06:23.068Z,20.40
2022-07-27T17:08:55.100Z,20.20
2022-07-27T17:11:22.421Z,20.20
2022-07-27T17:13:59.070Z,20.30
2022-07-27T17:16:26.711Z,20.40
2022-07-27T17:18:53.757Z,20.40
2022-07-27T17:21:20.662Z,20.30
2022-07-27T17:23:53.399Z,20.40
2022-07-27T17:26:20.283Z,20.40
2022-07-27T17:28:51.088Z,20.50
2022-07-27T17:31:18.820Z,20.30
2022-07-27T17:33:45.673Z,20.40
2022-07-27T17:36:15.296Z,20.40
2022-07-27T17:38:46.520Z,20.40
2022-07-27T17:41:18.127Z,20.50
2022-07-27T17:43:48.875Z,20.30
2022-07-27T17:46:16.055Z,20.40
2022-07-27T17:48:43.006Z,20.40
2022-07-27T17:51:10.457Z,20.20
2022-07-27T17:53:37.792Z,20.20
2022-07-27T17:56:05.361Z,20.40
2022-07-27T17:58:32.402Z,20.30
2022-07-27T18:00:59.741Z,20.20
2022-07-27T18:03:29.303Z,20.20
2022-07-27T18:05:56.284Z,20.00
2022-07-27T18:08:23.180Z,19.90
2022-07-27T18:10:53.011Z,19.70
2022-07-27T18:13:20.049Z,19.80
2022-07-27T18:15:47.211Z,19.80
2022-07-27T18:18:19.884Z,19.60
2022-07-27T18:20:52.769Z,19.60
2022-07-27T18:23:22.489Z,19.60
2022-07-27T18:25:50.409Z,19.50
2022-07-27T18:28:18.910Z,19.50
2022-07-27T18:30:48.887Z,19.60
2022-07-27T18:33:16.672Z,19.60
2022-07-27T18:35:44.896Z,19.60
2022-07-27T18:38:12.918Z,19.70
2022-07-27T18:40:43.030Z,19.60
2022-07-27T18:43:10.708Z,19.60
2022-07-27T18:45:39.312Z,19.60
2022-07-27T18:48:10.846Z,19.50
2022-07-27T18:50:41.054Z,19.50
2022-07-27T18:53:08.881Z,19.60
2022-07-27T18:55:36.619Z,19.50
2022-07-27T18:58:04.012Z,19.40
2022-07-27T19:00:31.730Z,19.30
2022-07-27T19:02:59.358Z,19.30
2022-07-27T19:05:32.479Z,19.20
2022-07-27T19:08:12.886Z,19.30
2022-07-27T19:10:42.540Z,19.20
2022-07-27T19:13:11.305Z,19.20
2022-07-27T19:15:39.580Z,19.20
2022-07-27T19:18:06.946Z,19.00
2022-07-27T19:20:36.353Z,18.90
2022-07-27T19:23:04.824Z,18.90
2022-07-27T19:25:33.521Z,18.90
2022-07-27T19:28:04.338Z,18.90
2022-07-27T19:30:31.506Z,18.80
2022-07-27T19:32:58.563Z,18.70
2022-07-27T19:35:25.437Z,18.70
2022-07-27T19:37:52.401Z,18.60
2022-07-27T19:43:11.479Z,18.60
2022-07-27T19:45:41.508Z,18.50
2022-07-27T19:48:11.696Z,18.50
2022-07-27T19:50:39.208Z,18.40
2022-07-27T19:53:10.681Z,18.30
2022-07-27T19:55:37.832Z,18.20
2022-07-27T19:58:04.979Z,18.20
2022-07-27T20:00:32.026Z,18.20
2022-07-27T20:02:59.138Z,18.10
2022-07-27T20:05:26.006Z,18.00
2022-07-27T20:07:53.339Z,18.00
2022-07-27T20:10:21.755Z,17.90
2022-07-27T20:12:51.537Z,17.90
2022-07-27T20:15:18.368Z,17.80
2022-07-27T20:17:49.679Z,17.80
2022-07-27T20:20:16.725Z,17.80
2022-07-27T20:22:43.506Z,17.80
2022-07-27T20:25:10.680Z,17.70
2022-07-27T20:27:38.492Z,17.70
2022-07-27T20:30:06.279Z,17.60
2022-07-27T20:32:33.172Z,17.60
2022-07-27T20:35:01.153Z,17.60
2022-07-27T20:37:28.253Z,17.60
2022-07-27T20:40:00.720Z,17.50
2022-07-27T20:42:27.954Z,17.40
2022-07-27T20:44:54.927Z,17.40
2022-07-27T20:47:24.315Z,17.40
2022-07-27T20:49:51.370Z,17.40
2022-07-27T20:52:18.226Z,17.40
2022-07-27T20:54:45.024Z,17.30
2022-07-27T20:57:11.838Z,17.30
2022-07-27T20:59:38.642Z,17.20
2022-07-27T21:02:08.573Z,17.20
2022-07-27T21:04:35.590Z,17.20
2022-07-27T21:07:02.397Z,17.20
2022-07-27T21:09:31.780Z,17.10
2022-07-27T21:11:58.788Z,17.10
2022-07-27T21:14:28.519Z,17.10
2022-07-27T21:16:57.546Z,17.10
2022-07-27T21:19:24.433Z,17.00
2022-07-27T21:21:51.190Z,16.90
2022-07-27T21:24:19.899Z,16.90
2022-07-27T21:26:50.061Z,16.80
2022-07-27T21:29:18.822Z,16.80
2022-07-27T21:31:49.214Z,16.70
2022-07-27T21:34:20.092Z,16.70
2022-07-27T21:36:47.770Z,16.70
2022-07-27T21:39:15.363Z,16.70
2022-07-27T21:41:42.215Z,16.60
2022-07-27T21:44:09.054Z,16.60
2022-07-27T21:46:35.976Z,16.50
2022-07-27T21:49:03.313Z,16.50
2022-07-27T21:51:30.194Z,16.50
2022-07-27T21:53:57.065Z,16.50
2022-07-27T21:56:24.523Z,16.40
2022-07-27T21:58:51.536Z,16.40
2022-07-27T22:01:18.738Z,16.40
2022-07-27T22:03:45.917Z,16.40
2022-07-27T22:06:13.657Z,16.40
2022-07-27T22:08:40.486Z,16.30
2022-07-27T22:11:08.212Z,16.30
2022-07-27T22:13:35.159Z,16.30
2022-07-27T22:16:02.337Z,16.20
2022-07-27T22:18:29.372Z,16.20
2022-07-27T22:20:56.901Z,16.20
2022-07-27T22:23:24.216Z,16.30
2022-07-27T22:25:51.689Z,16.20
2022-07-27T22:28:18.538Z,16.10
2022-07-27T22:31:15.517Z,16.20
2022-07-27T22:33:32.765Z,16.20
2022-07-27T22:35:59.623Z,16.20
2022-07-27T22:38:27.948Z,16.10
2022-07-27T22:40:56.325Z,16.10
2022-07-27T22:43:23.473Z,16.10
2022-07-27T22:45:51.838Z,16.10
2022-07-27T22:48:19.027Z,16.10
2022-07-27T22:50:45.917Z,16.10
2022-07-27T22:53:14.685Z,16.10
2022-07-27T22:55:42.599Z,16.10
2022-07-27T22:58:09.597Z,16.10
2022-07-27T23:00:36.598Z,16.00
2022-07-27T23:03:03.870Z,16.00
2022-07-27T23:05:30.968Z,15.90
2022-07-27T23:07:57.808Z,15.90
2022-07-27T23:10:43.565Z,15.80
2022-07-27T23:13:10.505Z,15.80
2022-07-27T23:15:37.943Z,15.90
2022-07-27T23:18:06.158Z,15.80
2022-07-27T23:20:33.170Z,15.80
2022-07-27T23:23:00.172Z,15.80
2022-07-27T23:25:36.201Z,15.80
2022-07-27T23:28:04.761Z,15.70
2022-07-27T23:30:31.556Z,15.80
2022-07-27T23:32:58.340Z,15.80
2022-07-27T23:35:25.259Z,15.80
2022-07-27T23:37:52.219Z,15.80
2022-07-27T23:40:19.101Z,15.70
2022-07-27T23:42:45.973Z,15.80
2022-07-27T23:45:13.030Z,15.70
2022-07-27T23:47:40.241Z,15.70
2022-07-27T23:50:08.236Z,15.70
2022-07-27T23:52:35.245Z,15.70
2022-07-27T23:55:02.226Z,15.70
2022-07-27T23:57:29.720Z,15.70
2022-07-27T23:59:56.624Z,15.60
